sensor_id;sensor_type;location;lat;lon;timestamp;temperature;humidity
54938;DHT22;52756;52.826;6.214;2022-10-16T00:01:29;13.20;77.80
54938;DHT22;52756;52.826;6.214;2022-10-16T00:03:56;13.30;77.80
54938;DHT22;52756;52.826;6.214;2022-10-16T00:06:23;13.20;77.70
54938;DHT22;52756;52.826;6.214;2022-10-16T00:08:49;13.30;77.80
54938;DHT22;52756;52.826;6.214;2022-10-16T00:11:18;13.20;77.70
54938;DHT22;52756;52.826;6.214;2022-10-16T00:13:45;13.30;77.70
54938;DHT22;52756;52.826;6.214;2022-10-16T00:16:12;13.30;77.70
54938;DHT22;52756;52.826;6.214;2022-10-16T00:18:38;13.30;77.60
54938;DHT22;52756;52.826;6.214;2022-10-16T00:21:09;13.30;77.60
54938;DHT22;52756;52.826;6.214;2022-10-16T00:23:36;13.30;77.50
54938;DHT22;52756;52.826;6.214;2022-10-16T00:26:04;13.30;77.50
54938;DHT22;52756;52.826;6.214;2022-10-16T00:28:31;13.30;77.40
54938;DHT22;52756;52.826;6.214;2022-10-16T00:30:57;13.30;77.30
54938;DHT22;52756;52.826;6.214;2022-10-16T00:33:23;13.30;77.30
54938;DHT22;52756;52.826;6.214;2022-10-16T00:35:49;13.30;77.20
54938;DHT22;52756;52.826;6.214;2022-10-16T00:38:16;13.20;77.10
54938;DHT22;52756;52.826;6.214;2022-10-16T00:40:41;13.30;77.20
54938;DHT22;52756;52.826;6.214;2022-10-16T00:43:34;13.30;77.10
54938;DHT22;52756;52.826;6.214;2022-10-16T00:46:01;13.30;77.00
54938;DHT22;52756;52.826;6.214;2022-10-16T00:48:27;13.30;77.00
54938;DHT22;52756;52.826;6.214;2022-10-16T00:50:53;13.30;77.00
54938;DHT22;52756;52.826;6.214;2022-10-16T00:53:19;13.30;77.00
54938;DHT22;52756;52.826;6.214;2022-10-16T00:55:45;13.30;77.00
54938;DHT22;52756;52.826;6.214;2022-10-16T00:58:11;13.30;77.00
54938;DHT22;52756;52.826;6.214;2022-10-16T01:00:37;13.30;76.90
54938;DHT22;52756;52.826;6.214;2022-10-16T01:03:32;13.30;76.90
54938;DHT22;52756;52.826;6.214;2022-10-16T01:06:01;13.30;76.80
54938;DHT22;52756;52.826;6.214;2022-10-16T01:08:37;13.30;76.80
54938;DHT22;52756;52.826;6.214;2022-10-16T01:11:16;13.30;76.90
54938;DHT22;52756;52.826;6.214;2022-10-16T01:13:46;13.30;76.70
54938;DHT22;52756;52.826;6.214;2022-10-16T01:16:38;13.40;76.70
54938;DHT22;52756;52.826;6.214;2022-10-16T01:21:58;13.40;76.20
54938;DHT22;52756;52.826;6.214;2022-10-16T01:24:37;13.40;76.20
54938;DHT22;52756;52.826;6.214;2022-10-16T01:27:24;13.40;76.10
54938;DHT22;52756;52.826;6.214;2022-10-16T01:32:39;13.40;75.80
54938;DHT22;52756;52.826;6.214;2022-10-16T01:35:23;13.40;75.80
54938;DHT22;52756;52.826;6.214;2022-10-16T01:40:39;13.50;75.70
54938;DHT22;52756;52.826;6.214;2022-10-16T01:43:14;13.50;75.60
54938;DHT22;52756;52.826;6.214;2022-10-16T01:45:41;13.50;75.50
54938;DHT22;52756;52.826;6.214;2022-10-16T01:48:09;13.50;75.50
54938;DHT22;52756;52.826;6.214;2022-10-16T01:50:39;13.50;75.30
54938;DHT22;52756;52.826;6.214;2022-10-16T01:53:09;13.50;75.20
54938;DHT22;52756;52.826;6.214;2022-10-16T01:55:39;13.50;75.20
54938;DHT22;52756;52.826;6.214;2022-10-16T01:58:08;13.50;75.20
54938;DHT22;52756;52.826;6.214;2022-10-16T02:00:38;13.50;75.10
54938;DHT22;52756;52.826;6.214;2022-10-16T02:03:05;13.50;75.10
54938;DHT22;52756;52.826;6.214;2022-10-16T02:05:44;13.50;75.10
54938;DHT22;52756;52.826;6.214;2022-10-16T02:08:11;13.50;75.00
54938;DHT22;52756;52.826;6.214;2022-10-16T02:10:37;13.50;75.10
54938;DHT22;52756;52.826;6.214;2022-10-16T02:13:08;13.50;75.20
54938;DHT22;52756;52.826;6.214;2022-10-16T02:15:35;13.50;75.10
54938;DHT22;52756;52.826;6.214;2022-10-16T02:18:02;13.50;75.20
54938;DHT22;52756;52.826;6.214;2022-10-16T02:20:34;13.50;75.20
54938;DHT22;52756;52.826;6.214;2022-10-16T02:23:03;13.50;75.20
54938;DHT22;52756;52.826;6.214;2022-10-16T02:25:35;13.50;75.60
54938;DHT22;52756;52.826;6.214;2022-10-16T02:28:19;13.50;75.10
54938;DHT22;52756;52.826;6.214;2022-10-16T02:30:56;13.50;75.20
54938;DHT22;52756;52.826;6.214;2022-10-16T02:33:24;13.50;75.20
54938;DHT22;52756;52.826;6.214;2022-10-16T02:35:51;13.50;75.20
54938;DHT22;52756;52.826;6.214;2022-10-16T02:38:18;13.50;75.20
54938;DHT22;52756;52.826;6.214;2022-10-16T02:40:45;13.60;75.30
54938;DHT22;52756;52.826;6.214;2022-10-16T02:43:11;13.50;75.30
54938;DHT22;52756;52.826;6.214;2022-10-16T02:45:37;13.50;75.40
54938;DHT22;52756;52.826;6.214;2022-10-16T02:48:03;13.50;75.30
54938;DHT22;52756;52.826;6.214;2022-10-16T02:50:29;13.50;75.30
54938;DHT22;52756;52.826;6.214;2022-10-16T02:52:54;13.50;75.30
54938;DHT22;52756;52.826;6.214;2022-10-16T02:55:20;13.50;75.30
54938;DHT22;52756;52.826;6.214;2022-10-16T02:57:46;13.50;75.30
54938;DHT22;52756;52.826;6.214;2022-10-16T03:00:14;13.50;75.30
54938;DHT22;52756;52.826;6.214;2022-10-16T03:02:40;13.60;75.40
54938;DHT22;52756;52.826;6.214;2022-10-16T03:05:07;13.50;75.40
54938;DHT22;52756;52.826;6.214;2022-10-16T03:07:33;13.50;75.40
54938;DHT22;52756;52.826;6.214;2022-10-16T03:09:59;13.50;75.50
54938;DHT22;52756;52.826;6.214;2022-10-16T03:12:28;13.60;75.60
54938;DHT22;52756;52.826;6.214;2022-10-16T03:14:55;13.60;75.60
54938;DHT22;52756;52.826;6.214;2022-10-16T03:17:22;13.50;75.50
54938;DHT22;52756;52.826;6.214;2022-10-16T03:19:48;13.50;75.60
54938;DHT22;52756;52.826;6.214;2022-10-16T03:22:14;13.50;75.60
54938;DHT22;52756;52.826;6.214;2022-10-16T03:24:39;13.60;75.70
54938;DHT22;52756;52.826;6.214;2022-10-16T03:27:05;13.60;75.80
54938;DHT22;52756;52.826;6.214;2022-10-16T03:29:31;13.60;75.80
54938;DHT22;52756;52.826;6.214;2022-10-16T03:31:58;13.60;75.90
54938;DHT22;52756;52.826;6.214;2022-10-16T03:34:24;13.50;75.80
54938;DHT22;52756;52.826;6.214;2022-10-16T03:36:51;13.60;76.00
54938;DHT22;52756;52.826;6.214;2022-10-16T03:39:17;13.60;76.00
54938;DHT22;52756;52.826;6.214;2022-10-16T03:41:42;13.50;75.90
54938;DHT22;52756;52.826;6.214;2022-10-16T03:44:08;13.60;76.00
54938;DHT22;52756;52.826;6.214;2022-10-16T03:46:34;13.60;76.00
54938;DHT22;52756;52.826;6.214;2022-10-16T03:48:59;13.50;76.00
54938;DHT22;52756;52.826;6.214;2022-10-16T03:51:25;13.60;76.10
54938;DHT22;52756;52.826;6.214;2022-10-16T03:53:51;13.60;76.20
54938;DHT22;52756;52.826;6.214;2022-10-16T03:56:16;13.50;76.20
54938;DHT22;52756;52.826;6.214;2022-10-16T03:58:42;13.50;76.20
54938;DHT22;52756;52.826;6.214;2022-10-16T04:01:07;13.50;76.20
54938;DHT22;52756;52.826;6.214;2022-10-16T04:03:33;13.50;76.30
54938;DHT22;52756;52.826;6.214;2022-10-16T04:05:59;13.50;76.30
54938;DHT22;52756;52.826;6.214;2022-10-16T04:08:25;13.50;76.30
54938;DHT22;52756;52.826;6.214;2022-10-16T04:10:50;13.50;76.30
54938;DHT22;52756;52.826;6.214;2022-10-16T04:13:16;13.50;76.30
54938;DHT22;52756;52.826;6.214;2022-10-16T04:15:42;13.50;76.30
54938;DHT22;52756;52.826;6.214;2022-10-16T04:18:08;13.50;76.30
54938;DHT22;52756;52.826;6.214;2022-10-16T04:20:33;13.50;76.30
54938;DHT22;52756;52.826;6.214;2022-10-16T04:22:59;13.40;76.30
54938;DHT22;52756;52.826;6.214;2022-10-16T04:25:25;13.40;76.40
54938;DHT22;52756;52.826;6.214;2022-10-16T04:27:53;13.40;76.50
54938;DHT22;52756;52.826;6.214;2022-10-16T04:30:19;13.40;76.50
54938;DHT22;52756;52.826;6.214;2022-10-16T04:32:48;13.40;76.70
54938;DHT22;52756;52.826;6.214;2022-10-16T04:35:15;13.40;76.80
54938;DHT22;52756;52.826;6.214;2022-10-16T04:37:41;13.40;76.90
54938;DHT22;52756;52.826;6.214;2022-10-16T04:40:07;13.40;77.00
54938;DHT22;52756;52.826;6.214;2022-10-16T04:42:33;13.40;77.10
54938;DHT22;52756;52.826;6.214;2022-10-16T04:44:58;13.30;77.10
54938;DHT22;52756;52.826;6.214;2022-10-16T04:47:24;13.40;77.70
54938;DHT22;52756;52.826;6.214;2022-10-16T04:49:50;13.40;77.40
54938;DHT22;52756;52.826;6.214;2022-10-16T04:52:15;13.40;77.40
54938;DHT22;52756;52.826;6.214;2022-10-16T04:54:41;13.40;77.50
54938;DHT22;52756;52.826;6.214;2022-10-16T04:57:07;13.40;77.60
54938;DHT22;52756;52.826;6.214;2022-10-16T04:59:33;13.30;77.60
54938;DHT22;52756;52.826;6.214;2022-10-16T05:01:58;13.40;77.70
54938;DHT22;52756;52.826;6.214;2022-10-16T05:04:24;13.40;77.70
54938;DHT22;52756;52.826;6.214;2022-10-16T05:06:49;13.30;77.70
54938;DHT22;52756;52.826;6.214;2022-10-16T05:09:15;13.40;77.80
54938;DHT22;52756;52.826;6.214;2022-10-16T05:11:41;13.40;77.90
54938;DHT22;52756;52.826;6.214;2022-10-16T05:14:06;13.40;77.90
54938;DHT22;52756;52.826;6.214;2022-10-16T05:16:32;13.40;77.90
54938;DHT22;52756;52.826;6.214;2022-10-16T05:18:58;13.40;77.90
54938;DHT22;52756;52.826;6.214;2022-10-16T05:21:23;13.40;78.00
54938;DHT22;52756;52.826;6.214;2022-10-16T05:23:49;13.40;78.00
54938;DHT22;52756;52.826;6.214;2022-10-16T05:26:14;13.40;78.10
54938;DHT22;52756;52.826;6.214;2022-10-16T05:28:40;13.40;78.10
54938;DHT22;52756;52.826;6.214;2022-10-16T05:31:07;13.40;78.10
54938;DHT22;52756;52.826;6.214;2022-10-16T05:33:33;13.30;78.10
54938;DHT22;52756;52.826;6.214;2022-10-16T05:36:03;13.40;78.20
54938;DHT22;52756;52.826;6.214;2022-10-16T05:38:29;13.40;78.20
54938;DHT22;52756;52.826;6.214;2022-10-16T05:40:54;13.40;78.20
54938;DHT22;52756;52.826;6.214;2022-10-16T05:43:20;13.40;78.20
54938;DHT22;52756;52.826;6.214;2022-10-16T05:45:57;13.40;78.20
54938;DHT22;52756;52.826;6.214;2022-10-16T05:48:23;13.40;78.20
54938;DHT22;52756;52.826;6.214;2022-10-16T05:50:55;13.40;78.20
54938;DHT22;52756;52.826;6.214;2022-10-16T05:53:22;13.40;78.20
54938;DHT22;52756;52.826;6.214;2022-10-16T05:55:58;13.40;78.30
54938;DHT22;52756;52.826;6.214;2022-10-16T05:58:25;13.40;78.30
54938;DHT22;52756;52.826;6.214;2022-10-16T06:00:58;13.30;78.20
54938;DHT22;52756;52.826;6.214;2022-10-16T06:03:24;13.40;78.30
54938;DHT22;52756;52.826;6.214;2022-10-16T06:05:50;13.40;78.20
54938;DHT22;52756;52.826;6.214;2022-10-16T06:08:16;13.40;78.30
54938;DHT22;52756;52.826;6.214;2022-10-16T06:10:43;13.40;78.20
54938;DHT22;52756;52.826;6.214;2022-10-16T06:13:09;13.40;78.30
54938;DHT22;52756;52.826;6.214;2022-10-16T06:15:35;13.40;78.30
54938;DHT22;52756;52.826;6.214;2022-10-16T06:18:01;13.40;78.30
54938;DHT22;52756;52.826;6.214;2022-10-16T06:20:26;13.40;78.30
54938;DHT22;52756;52.826;6.214;2022-10-16T06:22:52;13.40;78.30
54938;DHT22;52756;52.826;6.214;2022-10-16T06:25:17;13.40;78.30
54938;DHT22;52756;52.826;6.214;2022-10-16T06:27:43;13.40;78.30
54938;DHT22;52756;52.826;6.214;2022-10-16T06:30:09;13.40;78.30
54938;DHT22;52756;52.826;6.214;2022-10-16T06:32:35;13.40;78.30
54938;DHT22;52756;52.826;6.214;2022-10-16T06:35:00;13.40;78.40
54938;DHT22;52756;52.826;6.214;2022-10-16T06:37:27;13.40;78.40
54938;DHT22;52756;52.826;6.214;2022-10-16T06:39:52;13.40;78.50
54938;DHT22;52756;52.826;6.214;2022-10-16T06:42:18;13.40;78.50
54938;DHT22;52756;52.826;6.214;2022-10-16T06:44:44;13.40;78.50
54938;DHT22;52756;52.826;6.214;2022-10-16T06:47:10;13.40;78.60
54938;DHT22;52756;52.826;6.214;2022-10-16T06:49:36;13.40;78.60
54938;DHT22;52756;52.826;6.214;2022-10-16T06:52:02;13.50;78.70
54938;DHT22;52756;52.826;6.214;2022-10-16T06:54:28;13.40;78.70
54938;DHT22;52756;52.826;6.214;2022-10-16T06:56:53;13.50;78.80
54938;DHT22;52756;52.826;6.214;2022-10-16T06:59:20;13.50;78.80
54938;DHT22;52756;52.826;6.214;2022-10-16T07:01:46;13.50;78.80
54938;DHT22;52756;52.826;6.214;2022-10-16T07:04:12;13.50;78.80
54938;DHT22;52756;52.826;6.214;2022-10-16T07:06:38;13.60;78.90
54938;DHT22;52756;52.826;6.214;2022-10-16T07:09:07;13.60;78.90
54938;DHT22;52756;52.826;6.214;2022-10-16T07:11:33;13.60;78.90
54938;DHT22;52756;52.826;6.214;2022-10-16T07:13:59;13.60;78.90
54938;DHT22;52756;52.826;6.214;2022-10-16T07:16:27;13.60;78.90
54938;DHT22;52756;52.826;6.214;2022-10-16T07:18:55;13.60;78.90
54938;DHT22;52756;52.826;6.214;2022-10-16T07:21:24;13.60;78.90
54938;DHT22;52756;52.826;6.214;2022-10-16T07:23:52;13.60;78.90
54938;DHT22;52756;52.826;6.214;2022-10-16T07:26:18;13.60;78.90
54938;DHT22;52756;52.826;6.214;2022-10-16T07:28:44;13.70;78.90
54938;DHT22;52756;52.826;6.214;2022-10-16T07:31:12;13.70;78.80
54938;DHT22;52756;52.826;6.214;2022-10-16T07:33:39;13.70;78.80
54938;DHT22;52756;52.826;6.214;2022-10-16T07:36:07;13.70;78.70
54938;DHT22;52756;52.826;6.214;2022-10-16T07:38:34;13.70;79.10
54938;DHT22;52756;52.826;6.214;2022-10-16T07:41:05;13.70;78.60
54938;DHT22;52756;52.826;6.214;2022-10-16T07:43:31;13.80;78.70
54938;DHT22;52756;52.826;6.214;2022-10-16T07:45:58;13.80;78.60
54938;DHT22;52756;52.826;6.214;2022-10-16T07:48:26;13.80;78.90
54938;DHT22;52756;52.826;6.214;2022-10-16T07:50:52;13.80;78.40
54938;DHT22;52756;52.826;6.214;2022-10-16T07:53:18;13.80;78.40
54938;DHT22;52756;52.826;6.214;2022-10-16T07:55:43;13.90;78.40
54938;DHT22;52756;52.826;6.214;2022-10-16T07:58:09;13.90;78.40
54938;DHT22;52756;52.826;6.214;2022-10-16T08:00:36;13.90;78.40
54938;DHT22;52756;52.826;6.214;2022-10-16T08:03:02;13.90;78.40
54938;DHT22;52756;52.826;6.214;2022-10-16T08:05:29;14.00;78.40
54938;DHT22;52756;52.826;6.214;2022-10-16T08:07:56;14.00;78.30
54938;DHT22;52756;52.826;6.214;2022-10-16T08:10:24;14.10;78.30
54938;DHT22;52756;52.826;6.214;2022-10-16T08:12:50;14.10;78.30
54938;DHT22;52756;52.826;6.214;2022-10-16T08:15:17;14.10;78.40
54938;DHT22;52756;52.826;6.214;2022-10-16T08:17:43;14.20;78.30
54938;DHT22;52756;52.826;6.214;2022-10-16T08:20:09;14.20;78.20
54938;DHT22;52756;52.826;6.214;2022-10-16T08:22:35;14.30;78.20
54938;DHT22;52756;52.826;6.214;2022-10-16T08:25:01;14.30;78.10
54938;DHT22;52756;52.826;6.214;2022-10-16T08:27:31;14.30;78.00
54938;DHT22;52756;52.826;6.214;2022-10-16T08:29:57;14.30;77.90
54938;DHT22;52756;52.826;6.214;2022-10-16T08:32:23;14.40;77.80
54938;DHT22;52756;52.826;6.214;2022-10-16T08:34:48;14.40;77.70
54938;DHT22;52756;52.826;6.214;2022-10-16T08:37:14;14.50;78.00
54938;DHT22;52756;52.826;6.214;2022-10-16T08:39:40;14.60;78.20
54938;DHT22;52756;52.826;6.214;2022-10-16T08:42:44;14.70;78.20
54938;DHT22;52756;52.826;6.214;2022-10-16T08:48:05;15.10;77.90
54938;DHT22;52756;52.826;6.214;2022-10-16T08:50:37;15.30;77.20
54938;DHT22;52756;52.826;6.214;2022-10-16T08:53:04;15.50;76.50
54938;DHT22;52756;52.826;6.214;2022-10-16T08:55:49;15.60;75.60
54938;DHT22;52756;52.826;6.214;2022-10-16T08:58:21;15.80;74.80
54938;DHT22;52756;52.826;6.214;2022-10-16T09:00:53;16.00;74.20
54938;DHT22;52756;52.826;6.214;2022-10-16T09:03:58;16.20;73.60
54938;DHT22;52756;52.826;6.214;2022-10-16T09:17:41;17.10;70.90
54938;DHT22;52756;52.826;6.214;2022-10-16T09:20:14;17.20;70.60
54938;DHT22;52756;52.826;6.214;2022-10-16T09:22:43;17.30;69.70
54938;DHT22;52756;52.826;6.214;2022-10-16T09:25:18;17.40;69.10
54938;DHT22;52756;52.826;6.214;2022-10-16T09:27:47;17.50;68.10
54938;DHT22;52756;52.826;6.214;2022-10-16T09:30:16;17.60;67.80
54938;DHT22;52756;52.826;6.214;2022-10-16T09:32:44;17.70;67.50
54938;DHT22;52756;52.826;6.214;2022-10-16T09:35:19;17.70;67.50
54938;DHT22;52756;52.826;6.214;2022-10-16T09:37:49;17.80;66.90
54938;DHT22;52756;52.826;6.214;2022-10-16T09:40:36;17.80;66.80
54938;DHT22;52756;52.826;6.214;2022-10-16T09:45:40;17.90;66.30
54938;DHT22;52756;52.826;6.214;2022-10-16T09:48:17;17.90;66.40
54938;DHT22;52756;52.826;6.214;2022-10-16T09:51:04;18.00;66.40
54938;DHT22;52756;52.826;6.214;2022-10-16T09:53:39;18.00;66.30
54938;DHT22;52756;52.826;6.214;2022-10-16T09:56:05;18.10;66.30
54938;DHT22;52756;52.826;6.214;2022-10-16T09:58:32;18.10;66.10
54938;DHT22;52756;52.826;6.214;2022-10-16T10:00:59;18.20;65.90
54938;DHT22;52756;52.826;6.214;2022-10-16T10:03:36;18.20;65.90
54938;DHT22;52756;52.826;6.214;2022-10-16T10:06:15;18.20;65.60
54938;DHT22;52756;52.826;6.214;2022-10-16T10:08:56;18.30;65.80
54938;DHT22;52756;52.826;6.214;2022-10-16T10:11:39;18.30;65.90
54938;DHT22;52756;52.826;6.214;2022-10-16T10:14:09;18.40;65.60
54938;DHT22;52756;52.826;6.214;2022-10-16T10:16:38;18.40;65.70
54938;DHT22;52756;52.826;6.214;2022-10-16T10:19:09;18.40;65.60
54938;DHT22;52756;52.826;6.214;2022-10-16T10:21:38;18.40;65.30
54938;DHT22;52756;52.826;6.214;2022-10-16T10:24:04;18.40;65.90
54938;DHT22;52756;52.826;6.214;2022-10-16T10:26:32;18.40;65.30
54938;DHT22;52756;52.826;6.214;2022-10-16T10:29:20;18.50;65.00
54938;DHT22;52756;52.826;6.214;2022-10-16T10:40:51;18.50;64.50
54938;DHT22;52756;52.826;6.214;2022-10-16T10:43:39;18.60;64.70
54938;DHT22;52756;52.826;6.214;2022-10-16T10:51:48;18.60;63.30
54938;DHT22;52756;52.826;6.214;2022-10-16T11:03:30;18.50;61.90
54938;DHT22;52756;52.826;6.214;2022-10-16T11:05:37;18.50;61.70
54938;DHT22;52756;52.826;6.214;2022-10-16T11:16:13;18.50;60.80
54938;DHT22;52756;52.826;6.214;2022-10-16T11:18:49;18.50;61.00
54938;DHT22;52756;52.826;6.214;2022-10-16T11:21:18;18.50;61.30
54938;DHT22;52756;52.826;6.214;2022-10-16T11:23:59;18.50;61.40
54938;DHT22;52756;52.826;6.214;2022-10-16T11:26:33;18.50;61.20
54938;DHT22;52756;52.826;6.214;2022-10-16T11:29:01;18.50;61.30
54938;DHT22;52756;52.826;6.214;2022-10-16T11:34:20;18.50;61.10
54938;DHT22;52756;52.826;6.214;2022-10-16T11:36:57;18.50;60.60
54938;DHT22;52756;52.826;6.214;2022-10-16T11:39:31;18.50;60.40
54938;DHT22;52756;52.826;6.214;2022-10-16T11:47:34;18.40;61.00
54938;DHT22;52756;52.826;6.214;2022-10-16T11:55:53;18.30;60.70
54938;DHT22;52756;52.826;6.214;2022-10-16T11:58:40;18.30;60.10
54938;DHT22;52756;52.826;6.214;2022-10-16T12:06:49;18.10;59.30
54938;DHT22;52756;52.826;6.214;2022-10-16T12:09:27;18.10;59.20
54938;DHT22;52756;52.826;6.214;2022-10-16T12:11:53;18.00;59.30
54938;DHT22;52756;52.826;6.214;2022-10-16T12:14:22;18.00;59.50
54938;DHT22;52756;52.826;6.214;2022-10-16T12:16:59;18.00;59.40
54938;DHT22;52756;52.826;6.214;2022-10-16T12:19:27;17.90;59.00
54938;DHT22;52756;52.826;6.214;2022-10-16T12:21:57;17.90;58.40
54938;DHT22;52756;52.826;6.214;2022-10-16T12:24:39;17.80;57.80
54938;DHT22;52756;52.826;6.214;2022-10-16T12:27:30;17.80;57.30
54938;DHT22;52756;52.826;6.214;2022-10-16T12:29:59;17.70;57.50
54938;DHT22;52756;52.826;6.214;2022-10-16T12:32:29;17.60;57.60
54938;DHT22;52756;52.826;6.214;2022-10-16T12:34:56;17.60;57.60
54938;DHT22;52756;52.826;6.214;2022-10-16T12:37:24;17.60;57.70
54938;DHT22;52756;52.826;6.214;2022-10-16T12:39:53;17.50;57.30
54938;DHT22;52756;52.826;6.214;2022-10-16T12:42:31;17.50;57.60
54938;DHT22;52756;52.826;6.214;2022-10-16T12:44:59;17.50;57.70
54938;DHT22;52756;52.826;6.214;2022-10-16T12:49:57;17.50;57.30
54938;DHT22;52756;52.826;6.214;2022-10-16T12:52:26;17.50;57.70
54938;DHT22;52756;52.826;6.214;2022-10-16T12:54:56;17.50;57.90
54938;DHT22;52756;52.826;6.214;2022-10-16T13:03:48;17.50;58.00
54938;DHT22;52756;52.826;6.214;2022-10-16T13:21:56;17.50;57.70
54938;DHT22;52756;52.826;6.214;2022-10-16T13:24:37;17.60;58.00
54938;DHT22;52756;52.826;6.214;2022-10-16T13:30:08;17.60;58.00
54938;DHT22;52756;52.826;6.214;2022-10-16T13:32:34;17.60;57.90
54938;DHT22;52756;52.826;6.214;2022-10-16T13:35:00;17.60;58.00
54938;DHT22;52756;52.826;6.214;2022-10-16T13:37:26;17.60;57.70
54938;DHT22;52756;52.826;6.214;2022-10-16T13:40:09;17.60;57.70
54938;DHT22;52756;52.826;6.214;2022-10-16T13:42:38;17.60;57.90
54938;DHT22;52756;52.826;6.214;2022-10-16T13:45:04;17.60;58.50
54938;DHT22;52756;52.826;6.214;2022-10-16T13:47:30;17.60;58.80
54938;DHT22;52756;52.826;6.214;2022-10-16T13:50:14;17.60;58.90
54938;DHT22;52756;52.826;6.214;2022-10-16T13:52:40;17.70;58.60
54938;DHT22;52756;52.826;6.214;2022-10-16T13:55:14;17.60;59.10
54938;DHT22;52756;52.826;6.214;2022-10-16T13:57:41;17.60;59.00
54938;DHT22;52756;52.826;6.214;2022-10-16T14:00:20;17.60;58.80
54938;DHT22;52756;52.826;6.214;2022-10-16T14:02:55;17.60;58.40
54938;DHT22;52756;52.826;6.214;2022-10-16T14:05:23;17.60;58.30
54938;DHT22;52756;52.826;6.214;2022-10-16T14:07:50;17.60;58.10
54938;DHT22;52756;52.826;6.214;2022-10-16T14:10:31;17.70;57.70
54938;DHT22;52756;52.826;6.214;2022-10-16T14:13:00;17.60;57.80
54938;DHT22;52756;52.826;6.214;2022-10-16T14:15:26;17.70;58.10
54938;DHT22;52756;52.826;6.214;2022-10-16T14:17:53;17.60;58.10
54938;DHT22;52756;52.826;6.214;2022-10-16T14:20:22;17.70;58.20
54938;DHT22;52756;52.826;6.214;2022-10-16T14:22:59;17.70;58.20
54938;DHT22;52756;52.826;6.214;2022-10-16T14:25:28;17.70;58.30
54938;DHT22;52756;52.826;6.214;2022-10-16T14:28:17;17.70;58.40
54938;DHT22;52756;52.826;6.214;2022-10-16T14:30:53;17.60;58.40
54938;DHT22;52756;52.826;6.214;2022-10-16T14:36:25;17.60;58.80
54938;DHT22;52756;52.826;6.214;2022-10-16T14:39:03;17.60;59.10
54938;DHT22;52756;52.826;6.214;2022-10-16T14:41:31;17.60;59.10
54938;DHT22;52756;52.826;6.214;2022-10-16T14:44:03;17.60;59.30
54938;DHT22;52756;52.826;6.214;2022-10-16T14:46:35;17.60;59.50
54938;DHT22;52756;52.826;6.214;2022-10-16T14:51:37;17.60;59.70
54938;DHT22;52756;52.826;6.214;2022-10-16T14:54:03;17.60;59.70
54938;DHT22;52756;52.826;6.214;2022-10-16T14:56:33;17.60;59.70
54938;DHT22;52756;52.826;6.214;2022-10-16T14:59:13;17.60;59.80
54938;DHT22;52756;52.826;6.214;2022-10-16T15:01:40;17.60;59.80
54938;DHT22;52756;52.826;6.214;2022-10-16T15:04:10;17.60;59.90
54938;DHT22;52756;52.826;6.214;2022-10-16T15:06:36;17.60;60.00
54938;DHT22;52756;52.826;6.214;2022-10-16T15:09:03;17.60;60.10
54938;DHT22;52756;52.826;6.214;2022-10-16T15:11:29;17.60;60.10
54938;DHT22;52756;52.826;6.214;2022-10-16T15:13:56;17.60;60.20
54938;DHT22;52756;52.826;6.214;2022-10-16T15:16:22;17.60;60.30
54938;DHT22;52756;52.826;6.214;2022-10-16T15:18:47;17.60;60.40
54938;DHT22;52756;52.826;6.214;2022-10-16T15:21:39;17.60;60.40
54938;DHT22;52756;52.826;6.214;2022-10-16T15:24:09;17.60;60.30
54938;DHT22;52756;52.826;6.214;2022-10-16T15:26:36;17.60;60.50
54938;DHT22;52756;52.826;6.214;2022-10-16T15:29:02;17.60;60.50
54938;DHT22;52756;52.826;6.214;2022-10-16T15:31:27;17.60;60.50
54938;DHT22;52756;52.826;6.214;2022-10-16T15:33:54;17.60;60.60
54938;DHT22;52756;52.826;6.214;2022-10-16T15:36:32;17.50;60.50
54938;DHT22;52756;52.826;6.214;2022-10-16T15:39:20;17.60;60.60
54938;DHT22;52756;52.826;6.214;2022-10-16T15:41:47;17.50;60.80
54938;DHT22;52756;52.826;6.214;2022-10-16T15:44:16;17.50;61.00
54938;DHT22;52756;52.826;6.214;2022-10-16T15:46:42;17.50;61.10
54938;DHT22;52756;52.826;6.214;2022-10-16T15:49:08;17.50;61.30
54938;DHT22;52756;52.826;6.214;2022-10-16T15:51:38;17.50;61.60
54938;DHT22;52756;52.826;6.214;2022-10-16T15:54:04;17.50;61.80
54938;DHT22;52756;52.826;6.214;2022-10-16T15:56:30;17.50;61.90
54938;DHT22;52756;52.826;6.214;2022-10-16T15:58:59;17.50;62.00
54938;DHT22;52756;52.826;6.214;2022-10-16T16:01:26;17.40;62.10
54938;DHT22;52756;52.826;6.214;2022-10-16T16:03:53;17.40;62.20
54938;DHT22;52756;52.826;6.214;2022-10-16T16:06:19;17.40;62.50
54938;DHT22;52756;52.826;6.214;2022-10-16T16:08:45;17.40;62.80
54938;DHT22;52756;52.826;6.214;2022-10-16T16:11:13;17.40;63.00
54938;DHT22;52756;52.826;6.214;2022-10-16T16:13:39;17.30;63.00
54938;DHT22;52756;52.826;6.214;2022-10-16T16:16:10;17.30;63.10
54938;DHT22;52756;52.826;6.214;2022-10-16T16:18:36;17.20;63.20
54938;DHT22;52756;52.826;6.214;2022-10-16T16:21:02;17.20;63.40
54938;DHT22;52756;52.826;6.214;2022-10-16T16:23:28;17.10;63.40
54938;DHT22;52756;52.826;6.214;2022-10-16T16:26:13;17.10;63.60
54938;DHT22;52756;52.826;6.214;2022-10-16T16:28:40;17.10;63.70
54938;DHT22;52756;52.826;6.214;2022-10-16T16:31:06;17.00;63.80
54938;DHT22;52756;52.826;6.214;2022-10-16T16:33:33;17.00;63.90
54938;DHT22;52756;52.826;6.214;2022-10-16T16:36:01;17.00;64.00
54938;DHT22;52756;52.826;6.214;2022-10-16T16:38:28;17.00;64.10
54938;DHT22;52756;52.826;6.214;2022-10-16T16:40:54;16.90;64.00
54938;DHT22;52756;52.826;6.214;2022-10-16T16:43:26;16.90;64.10
54938;DHT22;52756;52.826;6.214;2022-10-16T16:45:53;16.90;64.10
54938;DHT22;52756;52.826;6.214;2022-10-16T16:48:19;16.80;64.10
54938;DHT22;52756;52.826;6.214;2022-10-16T16:50:44;16.70;64.20
54938;DHT22;52756;52.826;6.214;2022-10-16T16:53:10;16.70;64.30
54938;DHT22;52756;52.826;6.214;2022-10-16T16:55:36;16.70;64.40
54938;DHT22;52756;52.826;6.214;2022-10-16T16:58:01;16.70;64.40
54938;DHT22;52756;52.826;6.214;2022-10-16T17:00:29;16.60;64.40
54938;DHT22;52756;52.826;6.214;2022-10-16T17:02:56;16.50;64.50
54938;DHT22;52756;52.826;6.214;2022-10-16T17:05:22;16.50;64.60
54938;DHT22;52756;52.826;6.214;2022-10-16T17:07:48;16.50;64.60
54938;DHT22;52756;52.826;6.214;2022-10-16T17:10:14;16.50;64.70
54938;DHT22;52756;52.826;6.214;2022-10-16T17:12:40;16.40;64.70
54938;DHT22;52756;52.826;6.214;2022-10-16T17:15:06;16.40;64.80
54938;DHT22;52756;52.826;6.214;2022-10-16T17:17:32;16.30;65.30
54938;DHT22;52756;52.826;6.214;2022-10-16T17:19:58;16.30;64.90
54938;DHT22;52756;52.826;6.214;2022-10-16T17:22:23;16.20;64.90
54938;DHT22;52756;52.826;6.214;2022-10-16T17:24:50;16.20;65.00
54938;DHT22;52756;52.826;6.214;2022-10-16T17:27:17;16.10;65.00
54938;DHT22;52756;52.826;6.214;2022-10-16T17:29:43;16.10;65.10
54938;DHT22;52756;52.826;6.214;2022-10-16T17:32:09;16.10;65.10